sensor_id;sensor_type;location;lat;lon;timestamp;P1;durP1;ratioP1;P2;durP2;ratioP2
43098;SDS011;28715;51.988;6.020;2022-12-24T00:02:20;32.30;;;4.97;;
43098;SDS011;28715;51.988;6.020;2022-12-24T00:04:45;25.08;;;4.38;;
43098;SDS011;28715;51.988;6.020;2022-12-24T00:07:11;27.93;;;4.77;;
43098;SDS011;28715;51.988;6.020;2022-12-24T00:09:37;32.40;;;4.77;;
43098;SDS011;28715;51.988;6.020;2022-12-24T00:12:02;28.13;;;5.03;;
43098;SDS011;28715;51.988;6.020;2022-12-24T00:14:28;34.40;;;4.87;;
43098;SDS011;28715;51.988;6.020;2022-12-24T00:16:54;31.77;;;5.30;;
43098;SDS011;28715;51.988;6.020;2022-12-24T00:19:19;32.13;;;5.57;;
43098;SDS011;28715;51.988;6.020;2022-12-24T00:21:45;31.50;;;5.03;;
43098;SDS011;28715;51.988;6.020;2022-12-24T00:24:10;40.43;;;5.37;;
43098;SDS011;28715;51.988;6.020;2022-12-24T00:26:36;26.80;;;5.60;;
43098;SDS011;28715;51.988;6.020;2022-12-24T00:29:01;31.13;;;5.33;;
43098;SDS011;28715;51.988;6.020;2022-12-24T00:31:27;33.97;;;5.53;;
43098;SDS011;28715;51.988;6.020;2022-12-24T00:33:53;30.13;;;4.87;;
43098;SDS011;28715;51.988;6.020;2022-12-24T00:36:18;33.27;;;5.77;;
43098;SDS011;28715;51.988;6.020;2022-12-24T00:38:45;27.23;;;4.85;;
43098;SDS011;28715;51.988;6.020;2022-12-24T00:41:11;31.67;;;5.65;;
43098;SDS011;28715;51.988;6.020;2022-12-24T00:43:50;31.73;;;5.78;;
43098;SDS011;28715;51.988;6.020;2022-12-24T00:46:17;31.98;;;5.15;;
43098;SDS011;28715;51.988;6.020;2022-12-24T00:48:43;30.87;;;5.00;;
43098;SDS011;28715;51.988;6.020;2022-12-24T00:51:08;31.53;;;4.37;;
43098;SDS011;28715;51.988;6.020;2022-12-24T00:53:34;34.77;;;5.57;;
43098;SDS011;28715;51.988;6.020;2022-12-24T00:55:59;35.70;;;5.10;;
43098;SDS011;28715;51.988;6.020;2022-12-24T00:58:25;29.23;;;4.93;;
43098;SDS011;28715;51.988;6.020;2022-12-24T01:00:50;32.33;;;4.83;;
43098;SDS011;28715;51.988;6.020;2022-12-24T01:03:16;34.47;;;5.50;;
43098;SDS011;28715;51.988;6.020;2022-12-24T01:05:41;30.17;;;4.87;;
43098;SDS011;28715;51.988;6.020;2022-12-24T01:08:07;32.17;;;4.93;;
43098;SDS011;28715;51.988;6.020;2022-12-24T01:10:32;27.13;;;4.53;;
43098;SDS011;28715;51.988;6.020;2022-12-24T01:13:01;37.93;;;5.83;;
43098;SDS011;28715;51.988;6.020;2022-12-24T01:15:27;30.42;;;6.10;;
43098;SDS011;28715;51.988;6.020;2022-12-24T01:17:53;31.40;;;5.67;;
43098;SDS011;28715;51.988;6.020;2022-12-24T01:20:18;34.60;;;5.67;;
43098;SDS011;28715;51.988;6.020;2022-12-24T01:22:44;36.97;;;5.47;;
43098;SDS011;28715;51.988;6.020;2022-12-24T01:25:10;41.30;;;5.70;;
43098;SDS011;28715;51.988;6.020;2022-12-24T01:27:36;29.57;;;5.17;;
43098;SDS011;28715;51.988;6.020;2022-12-24T01:30:02;32.47;;;6.13;;
43098;SDS011;28715;51.988;6.020;2022-12-24T01:32:33;34.05;;;4.93;;
43098;SDS011;28715;51.988;6.020;2022-12-24T01:34:59;32.33;;;5.22;;
43098;SDS011;28715;51.988;6.020;2022-12-24T01:37:24;38.40;;;6.10;;
43098;SDS011;28715;51.988;6.020;2022-12-24T01:39:50;33.70;;;5.20;;
43098;SDS011;28715;51.988;6.020;2022-12-24T01:42:36;37.90;;;5.05;;
43098;SDS011;28715;51.988;6.020;2022-12-24T01:45:42;34.70;;;5.82;;
43098;SDS011;28715;51.988;6.020;2022-12-24T01:50:46;38.58;;;5.90;;
43098;SDS011;28715;51.988;6.020;2022-12-24T01:53:14;38.40;;;6.63;;
43098;SDS011;28715;51.988;6.020;2022-12-24T01:55:40;37.40;;;5.67;;
43098;SDS011;28715;51.988;6.020;2022-12-24T01:58:08;32.38;;;4.80;;
43098;SDS011;28715;51.988;6.020;2022-12-24T02:00:35;41.00;;;6.82;;
43098;SDS011;28715;51.988;6.020;2022-12-24T02:03:00;37.60;;;5.90;;
43098;SDS011;28715;51.988;6.020;2022-12-24T02:05:28;34.50;;;6.00;;
43098;SDS011;28715;51.988;6.020;2022-12-24T02:07:59;36.45;;;6.13;;
43098;SDS011;28715;51.988;6.020;2022-12-24T02:10:26;32.92;;;5.65;;
43098;SDS011;28715;51.988;6.020;2022-12-24T02:12:52;40.70;;;6.63;;
43098;SDS011;28715;51.988;6.020;2022-12-24T02:15:18;36.63;;;6.22;;
43098;SDS011;28715;51.988;6.020;2022-12-24T02:20:48;37.42;;;5.82;;
43098;SDS011;28715;51.988;6.020;2022-12-24T02:35:19;39.70;;;5.53;;
43098;SDS011;28715;51.988;6.020;2022-12-24T02:37:51;37.85;;;6.07;;
43098;SDS011;28715;51.988;6.020;2022-12-24T02:40:39;34.70;;;5.50;;
43098;SDS011;28715;51.988;6.020;2022-12-24T02:43:13;29.52;;;5.45;;
43098;SDS011;28715;51.988;6.020;2022-12-24T02:45:43;39.47;;;5.38;;
43098;SDS011;28715;51.988;6.020;2022-12-24T02:48:12;35.63;;;5.80;;
43098;SDS011;28715;51.988;6.020;2022-12-24T02:50:52;31.92;;;5.97;;
43098;SDS011;28715;51.988;6.020;2022-12-24T02:53:22;30.70;;;5.78;;
43098;SDS011;28715;51.988;6.020;2022-12-24T03:01:21;36.60;;;5.70;;
43098;SDS011;28715;51.988;6.020;2022-12-24T03:07:10;30.20;;;4.22;;
43098;SDS011;28715;51.988;6.020;2022-12-24T03:09:34;36.50;;;5.07;;
43098;SDS011;28715;51.988;6.020;2022-12-24T03:12:17;36.33;;;6.38;;
43098;SDS011;28715;51.988;6.020;2022-12-24T03:14:47;35.10;;;5.18;;
43098;SDS011;28715;51.988;6.020;2022-12-24T03:17:14;39.63;;;5.45;;
43098;SDS011;28715;51.988;6.020;2022-12-24T03:19:41;35.10;;;5.82;;
43098;SDS011;28715;51.988;6.020;2022-12-24T03:22:07;33.27;;;4.93;;
43098;SDS011;28715;51.988;6.020;2022-12-24T03:24:34;31.58;;;5.22;;
43098;SDS011;28715;51.988;6.020;2022-12-24T03:27:00;37.90;;;5.60;;
43098;SDS011;28715;51.988;6.020;2022-12-24T03:29:28;40.35;;;5.68;;
43098;SDS011;28715;51.988;6.020;2022-12-24T03:31:57;31.27;;;5.10;;
43098;SDS011;28715;51.988;6.020;2022-12-24T03:34:24;35.03;;;4.90;;
43098;SDS011;28715;51.988;6.020;2022-12-24T03:36:50;33.37;;;4.83;;
43098;SDS011;28715;51.988;6.020;2022-12-24T03:39:16;38.83;;;6.00;;
43098;SDS011;28715;51.988;6.020;2022-12-24T03:41:42;43.83;;;5.90;;
43098;SDS011;28715;51.988;6.020;2022-12-24T03:44:07;43.63;;;5.57;;
43098;SDS011;28715;51.988;6.020;2022-12-24T03:46:33;38.00;;;6.30;;
43098;SDS011;28715;51.988;6.020;2022-12-24T03:48:58;46.33;;;6.90;;
43098;SDS011;28715;51.988;6.020;2022-12-24T03:51:24;31.97;;;5.67;;
43098;SDS011;28715;51.988;6.020;2022-12-24T03:53:54;34.73;;;6.03;;
43098;SDS011;28715;51.988;6.020;2022-12-24T03:56:20;37.40;;;6.10;;
43098;SDS011;28715;51.988;6.020;2022-12-24T03:58:47;44.22;;;6.78;;
43098;SDS011;28715;51.988;6.020;2022-12-24T04:01:13;34.92;;;5.60;;
43098;SDS011;28715;51.988;6.020;2022-12-24T04:03:39;42.42;;;6.13;;
43098;SDS011;28715;51.988;6.020;2022-12-24T04:08:32;34.60;;;6.35;;
43098;SDS011;28715;51.988;6.020;2022-12-24T04:10:58;34.50;;;6.60;;
43098;SDS011;28715;51.988;6.020;2022-12-24T04:13:23;39.43;;;6.50;;
43098;SDS011;28715;51.988;6.020;2022-12-24T04:15:59;39.70;;;7.40;;
43098;SDS011;28715;51.988;6.020;2022-12-24T04:18:26;46.08;;;7.70;;
43098;SDS011;28715;51.988;6.020;2022-12-24T04:20:52;29.60;;;5.85;;
43098;SDS011;28715;51.988;6.020;2022-12-24T04:23:18;45.17;;;7.97;;
43098;SDS011;28715;51.988;6.020;2022-12-24T04:25:44;38.67;;;6.63;;
43098;SDS011;28715;51.988;6.020;2022-12-24T04:28:09;39.90;;;7.20;;
43098;SDS011;28715;51.988;6.020;2022-12-24T04:30:37;37.53;;;6.97;;
43098;SDS011;28715;51.988;6.020;2022-12-24T04:33:03;36.28;;;7.30;;
43098;SDS011;28715;51.988;6.020;2022-12-24T04:35:28;41.40;;;7.60;;
43098;SDS011;28715;51.988;6.020;2022-12-24T04:37:54;39.03;;;7.80;;
43098;SDS011;28715;51.988;6.020;2022-12-24T04:40:19;36.50;;;7.57;;
43098;SDS011;28715;51.988;6.020;2022-12-24T04:42:45;51.40;;;8.43;;
43098;SDS011;28715;51.988;6.020;2022-12-24T04:45:10;39.27;;;7.83;;
43098;SDS011;28715;51.988;6.020;2022-12-24T04:47:36;38.87;;;7.40;;
43098;SDS011;28715;51.988;6.020;2022-12-24T04:50:02;35.97;;;7.77;;
43098;SDS011;28715;51.988;6.020;2022-12-24T04:52:27;41.60;;;8.27;;
43098;SDS011;28715;51.988;6.020;2022-12-24T04:54:53;39.90;;;7.90;;
43098;SDS011;28715;51.988;6.020;2022-12-24T04:57:19;45.13;;;7.97;;
43098;SDS011;28715;51.988;6.020;2022-12-24T04:59:45;39.03;;;8.20;;
43098;SDS011;28715;51.988;6.020;2022-12-24T05:02:10;37.97;;;8.40;;
43098;SDS011;28715;51.988;6.020;2022-12-24T05:04:36;37.70;;;7.63;;
43098;SDS011;28715;51.988;6.020;2022-12-24T05:07:01;40.57;;;8.33;;
43098;SDS011;28715;51.988;6.020;2022-12-24T05:09:27;39.47;;;7.53;;
43098;SDS011;28715;51.988;6.020;2022-12-24T05:11:53;38.60;;;7.80;;
43098;SDS011;28715;51.988;6.020;2022-12-24T05:14:18;41.60;;;7.67;;
43098;SDS011;28715;51.988;6.020;2022-12-24T05:16:44;32.97;;;6.83;;
43098;SDS011;28715;51.988;6.020;2022-12-24T05:19:09;42.00;;;7.57;;
43098;SDS011;28715;51.988;6.020;2022-12-24T05:21:35;29.67;;;7.13;;
43098;SDS011;28715;51.988;6.020;2022-12-24T05:24:00;42.83;;;7.77;;
43098;SDS011;28715;51.988;6.020;2022-12-24T05:26:48;39.60;;;8.02;;
43098;SDS011;28715;51.988;6.020;2022-12-24T05:29:17;41.80;;;7.70;;
43098;SDS011;28715;51.988;6.020;2022-12-24T05:31:43;44.27;;;7.40;;
43098;SDS011;28715;51.988;6.020;2022-12-24T05:34:10;35.38;;;6.55;;
43098;SDS011;28715;51.988;6.020;2022-12-24T05:36:36;43.58;;;7.22;;
43098;SDS011;28715;51.988;6.020;2022-12-24T05:39:02;46.45;;;8.23;;
43098;SDS011;28715;51.988;6.020;2022-12-24T05:41:29;34.85;;;6.88;;
43098;SDS011;28715;51.988;6.020;2022-12-24T05:43:54;46.17;;;7.63;;
43098;SDS011;28715;51.988;6.020;2022-12-24T05:46:21;45.15;;;7.88;;
43098;SDS011;28715;51.988;6.020;2022-12-24T05:48:48;40.60;;;8.13;;
43098;SDS011;28715;51.988;6.020;2022-12-24T05:51:14;44.10;;;7.78;;
43098;SDS011;28715;51.988;6.020;2022-12-24T05:53:43;35.95;;;6.97;;
43098;SDS011;28715;51.988;6.020;2022-12-24T05:56:11;40.47;;;8.20;;
43098;SDS011;28715;51.988;6.020;2022-12-24T05:58:39;37.60;;;7.70;;
43098;SDS011;28715;51.988;6.020;2022-12-24T06:01:05;42.00;;;7.90;;
43098;SDS011;28715;51.988;6.020;2022-12-24T06:03:32;39.58;;;8.20;;
43098;SDS011;28715;51.988;6.020;2022-12-24T06:05:59;43.75;;;7.88;;
43098;SDS011;28715;51.988;6.020;2022-12-24T06:08:34;46.78;;;8.73;;
43098;SDS011;28715;51.988;6.020;2022-12-24T06:11:02;40.03;;;7.50;;
43098;SDS011;28715;51.988;6.020;2022-12-24T06:13:30;36.45;;;7.85;;
43098;SDS011;28715;51.988;6.020;2022-12-24T06:15:56;44.03;;;7.40;;
43098;SDS011;28715;51.988;6.020;2022-12-24T06:18:23;36.42;;;7.70;;
43098;SDS011;28715;51.988;6.020;2022-12-24T06:20:53;49.70;;;8.53;;
43098;SDS011;28715;51.988;6.020;2022-12-24T06:23:20;37.50;;;7.85;;
43098;SDS011;28715;51.988;6.020;2022-12-24T06:25:46;40.45;;;7.60;;
43098;SDS011;28715;51.988;6.020;2022-12-24T06:28:12;36.70;;;8.10;;
43098;SDS011;28715;51.988;6.020;2022-12-24T06:30:38;48.17;;;8.37;;
43098;SDS011;28715;51.988;6.020;2022-12-24T06:33:03;45.13;;;8.50;;
43098;SDS011;28715;51.988;6.020;2022-12-24T06:35:32;40.23;;;8.03;;
43098;SDS011;28715;51.988;6.020;2022-12-24T06:37:58;33.88;;;8.07;;
43098;SDS011;28715;51.988;6.020;2022-12-24T06:40:24;40.10;;;7.67;;
43098;SDS011;28715;51.988;6.020;2022-12-24T06:42:50;44.92;;;8.43;;
43098;SDS011;28715;51.988;6.020;2022-12-24T06:45:16;37.53;;;8.17;;
43098;SDS011;28715;51.988;6.020;2022-12-24T06:47:42;37.77;;;7.87;;
43098;SDS011;28715;51.988;6.020;2022-12-24T06:50:07;45.63;;;8.17;;
43098;SDS011;28715;51.988;6.020;2022-12-24T06:52:33;43.77;;;8.67;;
43098;SDS011;28715;51.988;6.020;2022-12-24T06:54:58;45.07;;;9.00;;
43098;SDS011;28715;51.988;6.020;2022-12-24T06:57:24;36.10;;;7.93;;
43098;SDS011;28715;51.988;6.020;2022-12-24T06:59:49;39.50;;;7.47;;
43098;SDS011;28715;51.988;6.020;2022-12-24T07:02:15;50.13;;;8.77;;
43098;SDS011;28715;51.988;6.020;2022-12-24T07:04:41;46.03;;;8.80;;
43098;SDS011;28715;51.988;6.020;2022-12-24T07:07:06;45.77;;;8.77;;
43098;SDS011;28715;51.988;6.020;2022-12-24T07:09:46;49.85;;;9.43;;
43098;SDS011;28715;51.988;6.020;2022-12-24T07:12:12;43.70;;;9.03;;
43098;SDS011;28715;51.988;6.020;2022-12-24T07:14:38;45.03;;;8.67;;
43098;SDS011;28715;51.988;6.020;2022-12-24T07:17:06;44.35;;;9.00;;
43098;SDS011;28715;51.988;6.020;2022-12-24T07:19:31;40.40;;;8.63;;
43098;SDS011;28715;51.988;6.020;2022-12-24T07:21:58;37.70;;;10.02;;
43098;SDS011;28715;51.988;6.020;2022-12-24T07:24:24;37.10;;;8.33;;
43098;SDS011;28715;51.988;6.020;2022-12-24T07:26:49;39.57;;;8.23;;
43098;SDS011;28715;51.988;6.020;2022-12-24T07:29:15;42.07;;;9.47;;
43098;SDS011;28715;51.988;6.020;2022-12-24T07:31:40;40.77;;;8.33;;
43098;SDS011;28715;51.988;6.020;2022-12-24T07:34:06;45.93;;;9.30;;
43098;SDS011;28715;51.988;6.020;2022-12-24T07:36:31;39.57;;;8.67;;
43098;SDS011;28715;51.988;6.020;2022-12-24T07:38:57;46.10;;;8.80;;
43098;SDS011;28715;51.988;6.020;2022-12-24T07:41:22;43.77;;;9.00;;
43098;SDS011;28715;51.988;6.020;2022-12-24T07:43:48;41.30;;;7.77;;
43098;SDS011;28715;51.988;6.020;2022-12-24T07:46:16;41.83;;;8.50;;
43098;SDS011;28715;51.988;6.020;2022-12-24T07:48:42;36.57;;;8.73;;
43098;SDS011;28715;51.988;6.020;2022-12-24T07:51:07;37.77;;;7.80;;
43098;SDS011;28715;51.988;6.020;2022-12-24T07:53:33;36.27;;;7.63;;
43098;SDS011;28715;51.988;6.020;2022-12-24T07:55:59;40.77;;;8.60;;
43098;SDS011;28715;51.988;6.020;2022-12-24T07:58:25;40.27;;;8.37;;
43098;SDS011;28715;51.988;6.020;2022-12-24T08:00:59;30.77;;;7.67;;
43098;SDS011;28715;51.988;6.020;2022-12-24T08:03:25;28.95;;;6.55;;
43098;SDS011;28715;51.988;6.020;2022-12-24T08:05:51;37.42;;;7.13;;
43098;SDS011;28715;51.988;6.020;2022-12-24T08:08:17;40.17;;;7.77;;
43098;SDS011;28715;51.988;6.020;2022-12-24T08:10:44;36.38;;;7.20;;
43098;SDS011;28715;51.988;6.020;2022-12-24T08:13:10;34.67;;;7.53;;
43098;SDS011;28715;51.988;6.020;2022-12-24T08:15:36;34.50;;;7.15;;
43098;SDS011;28715;51.988;6.020;2022-12-24T08:18:01;36.00;;;6.67;;
43098;SDS011;28715;51.988;6.020;2022-12-24T08:20:27;36.30;;;7.60;;
43098;SDS011;28715;51.988;6.020;2022-12-24T08:22:53;37.20;;;8.00;;
43098;SDS011;28715;51.988;6.020;2022-12-24T08:25:18;43.83;;;8.60;;
43098;SDS011;28715;51.988;6.020;2022-12-24T08:27:44;34.53;;;7.47;;
43098;SDS011;28715;51.988;6.020;2022-12-24T08:30:10;41.35;;;8.30;;
43098;SDS011;28715;51.988;6.020;2022-12-24T08:32:37;38.67;;;8.02;;
43098;SDS011;28715;51.988;6.020;2022-12-24T08:35:02;35.67;;;8.17;;
43098;SDS011;28715;51.988;6.020;2022-12-24T08:37:28;38.22;;;7.97;;
43098;SDS011;28715;51.988;6.020;2022-12-24T08:39:54;35.60;;;7.77;;
43098;SDS011;28715;51.988;6.020;2022-12-24T08:42:19;36.63;;;7.37;;
43098;SDS011;28715;51.988;6.020;2022-12-24T08:44:45;34.70;;;7.40;;
43098;SDS011;28715;51.988;6.020;2022-12-24T08:47:10;36.87;;;7.73;;
43098;SDS011;28715;51.988;6.020;2022-12-24T08:49:36;43.10;;;7.77;;
43098;SDS011;28715;51.988;6.020;2022-12-24T08:52:03;36.72;;;7.22;;
43098;SDS011;28715;51.988;6.020;2022-12-24T08:54:37;36.27;;;7.93;;
43098;SDS011;28715;51.988;6.020;2022-12-24T08:57:03;38.55;;;7.55;;
43098;SDS011;28715;51.988;6.020;2022-12-24T08:59:28;32.27;;;7.73;;
43098;SDS011;28715;51.988;6.020;2022-12-24T09:01:54;43.43;;;8.37;;
43098;SDS011;28715;51.988;6.020;2022-12-24T09:04:20;43.37;;;7.87;;
43098;SDS011;28715;51.988;6.020;2022-12-24T09:06:45;40.10;;;7.30;;
43098;SDS011;28715;51.988;6.020;2022-12-24T09:09:11;37.73;;;7.53;;
43098;SDS011;28715;51.988;6.020;2022-12-24T09:11:36;42.80;;;7.43;;
43098;SDS011;28715;51.988;6.020;2022-12-24T09:14:02;41.63;;;8.60;;
43098;SDS011;28715;51.988;6.020;2022-12-24T09:16:28;39.22;;;8.10;;
43098;SDS011;28715;51.988;6.020;2022-12-24T09:18:55;37.73;;;7.80;;
43098;SDS011;28715;51.988;6.020;2022-12-24T09:21:21;34.90;;;7.53;;
43098;SDS011;28715;51.988;6.020;2022-12-24T09:23:46;36.50;;;8.53;;
43098;SDS011;28715;51.988;6.020;2022-12-24T09:26:16;37.47;;;8.63;;
43098;SDS011;28715;51.988;6.020;2022-12-24T09:28:42;39.72;;;9.38;;
43098;SDS011;28715;51.988;6.020;2022-12-24T09:31:08;36.00;;;8.27;;
43098;SDS011;28715;51.988;6.020;2022-12-24T09:33:35;35.83;;;8.95;;
43098;SDS011;28715;51.988;6.020;2022-12-24T09:36:02;39.22;;;9.23;;
43098;SDS011;28715;51.988;6.020;2022-12-24T09:38:29;46.03;;;8.82;;
43098;SDS011;28715;51.988;6.020;2022-12-24T09:40:55;37.17;;;8.97;;
43098;SDS011;28715;51.988;6.020;2022-12-24T09:43:23;33.58;;;8.60;;
43098;SDS011;28715;51.988;6.020;2022-12-24T09:48:33;33.22;;;8.63;;
43098;SDS011;28715;51.988;6.020;2022-12-24T09:56:24;34.92;;;8.73;;
43098;SDS011;28715;51.988;6.020;2022-12-24T10:01:27;36.85;;;9.27;;
43098;SDS011;28715;51.988;6.020;2022-12-24T10:04:02;37.45;;;8.57;;
43098;SDS011;28715;51.988;6.020;2022-12-24T10:06:39;37.03;;;8.23;;
43098;SDS011;28715;51.988;6.020;2022-12-24T10:14:36;31.25;;;8.02;;
43098;SDS011;28715;51.988;6.020;2022-12-24T10:22:37;34.45;;;7.45;;
43098;SDS011;28715;51.988;6.020;2022-12-24T10:27:42;34.47;;;7.53;;
43098;SDS011;28715;51.988;6.020;2022-12-24T10:30:16;41.80;;;8.63;;
43098;SDS011;28715;51.988;6.020;2022-12-24T10:32:44;28.08;;;8.38;;
43098;SDS011;28715;51.988;6.020;2022-12-24T10:37:41;30.02;;;7.55;;
43098;SDS011;28715;51.988;6.020;2022-12-24T10:42:46;33.75;;;8.15;;
43098;SDS011;28715;51.988;6.020;2022-12-24T10:45:16;33.30;;;6.80;;
43098;SDS011;28715;51.988;6.020;2022-12-24T10:47:46;26.48;;;7.07;;
43098;SDS011;28715;51.988;6.020;2022-12-24T10:52:46;29.77;;;7.28;;
43098;SDS011;28715;51.988;6.020;2022-12-24T10:57:55;32.90;;;8.05;;
43098;SDS011;28715;51.988;6.020;2022-12-24T11:00:25;33.78;;;7.97;;
43098;SDS011;28715;51.988;6.020;2022-12-24T11:05:38;29.13;;;6.30;;
43098;SDS011;28715;51.988;6.020;2022-12-24T11:08:17;33.78;;;6.80;;
43098;SDS011;28715;51.988;6.020;2022-12-24T11:10:53;31.73;;;6.72;;
43098;SDS011;28715;51.988;6.020;2022-12-24T11:13:28;31.02;;;6.65;;
43098;SDS011;28715;51.988;6.020;2022-12-24T11:16:00;28.25;;;5.90;;
43098;SDS011;28715;51.988;6.020;2022-12-24T11:18:46;28.73;;;6.35;;
43098;SDS011;28715;51.988;6.020;2022-12-24T11:21:21;30.00;;;6.65;;
43098;SDS011;28715;51.988;6.020;2022-12-24T11:23:53;28.85;;;6.10;;
43098;SDS011;28715;51.988;6.020;2022-12-24T11:26:43;29.52;;;6.28;;
43098;SDS011;28715;51.988;6.020;2022-12-24T11:29:13;24.52;;;5.93;;
43098;SDS011;28715;51.988;6.020;2022-12-24T11:31:47;31.92;;;5.97;;
43098;SDS011;28715;51.988;6.020;2022-12-24T11:34:24;27.17;;;5.97;;
43098;SDS011;28715;51.988;6.020;2022-12-24T11:36:50;24.17;;;5.93;;
43098;SDS011;28715;51.988;6.020;2022-12-24T11:39:22;27.23;;;6.38;;
43098;SDS011;28715;51.988;6.020;2022-12-24T11:41:49;25.42;;;5.40;;
43098;SDS011;28715;51.988;6.020;2022-12-24T11:44:24;32.35;;;5.97;;
43098;SDS011;28715;51.988;6.020;2022-12-24T11:46:51;29.55;;;5.93;;
43098;SDS011;28715;51.988;6.020;2022-12-24T11:57:46;31.50;;;6.15;;
43098;SDS011;28715;51.988;6.020;2022-12-24T12:00:16;26.80;;;5.20;;
43098;SDS011;28715;51.988;6.020;2022-12-24T12:02:42;28.83;;;6.23;;
43098;SDS011;28715;51.988;6.020;2022-12-24T12:05:14;23.90;;;5.38;;
43098;SDS011;28715;51.988;6.020;2022-12-24T12:07:43;24.00;;;5.40;;
43098;SDS011;28715;51.988;6.020;2022-12-24T12:10:19;29.02;;;5.68;;
43098;SDS011;28715;51.988;6.020;2022-12-24T12:12:53;25.15;;;5.78;;
43098;SDS011;28715;51.988;6.020;2022-12-24T12:15:33;31.92;;;6.32;;
43098;SDS011;28715;51.988;6.020;2022-12-24T12:18:17;28.65;;;5.97;;
43098;SDS011;28715;51.988;6.020;2022-12-24T12:20:58;30.92;;;5.88;;
43098;SDS011;28715;51.988;6.020;2022-12-24T12:23:29;26.30;;;5.13;;
43098;SDS011;28715;51.988;6.020;2022-12-24T12:33:47;29.67;;;5.73;;
43098;SDS011;28715;51.988;6.020;2022-12-24T12:36:18;31.58;;;5.45;;
43098;SDS011;28715;51.988;6.020;2022-12-24T12:38:48;26.92;;;5.40;;
43098;SDS011;28715;51.988;6.020;2022-12-24T12:46:36;31.35;;;5.85;;
43098;SDS011;28715;51.988;6.020;2022-12-24T12:57:45;27.75;;;5.70;;
43098;SDS011;28715;51.988;6.020;2022-12-24T13:00:14;25.40;;;5.07;;
43098;SDS011;28715;51.988;6.020;2022-12-24T13:02:51;28.30;;;4.80;;
43098;SDS011;28715;51.988;6.020;2022-12-24T13:08:46;29.05;;;4.30;;
43098;SDS011;28715;51.988;6.020;2022-12-24T13:11:45;22.95;;;4.55;;
43098;SDS011;28715;51.988;6.020;2022-12-24T13:17:21;23.05;;;4.43;;
43098;SDS011;28715;51.988;6.020;2022-12-24T13:22:49;21.08;;;4.05;;
43098;SDS011;28715;51.988;6.020;2022-12-24T13:25:19;24.30;;;4.25;;
43098;SDS011;28715;51.988;6.020;2022-12-24T13:27:47;25.58;;;4.43;;
43098;SDS011;28715;51.988;6.020;2022-12-24T13:30:33;23.27;;;3.67;;
43098;SDS011;28715;51.988;6.020;2022-12-24T13:33:02;21.95;;;3.70;;
43098;SDS011;28715;51.988;6.020;2022-12-24T13:35:29;22.13;;;4.28;;
43098;SDS011;28715;51.988;6.020;2022-12-24T13:38:28;21.17;;;3.85;;
43098;SDS011;28715;51.988;6.020;2022-12-24T13:40:51;20.20;;;4.03;;
43098;SDS011;28715;51.988;6.020;2022-12-24T13:43:16;20.13;;;3.83;;
43098;SDS011;28715;51.988;6.020;2022-12-24T13:45:43;20.43;;;3.67;;
43098;SDS011;28715;51.988;6.020;2022-12-24T13:48:27;20.77;;;4.60;;
43098;SDS011;28715;51.988;6.020;2022-12-24T13:50:59;25.88;;;4.68;;
43098;SDS011;28715;51.988;6.020;2022-12-24T13:53:42;27.38;;;4.68;;
43098;SDS011;28715;51.988;6.020;2022-12-24T13:58:41;20.35;;;3.78;;
43098;SDS011;28715;51.988;6.020;2022-12-24T14:01:20;22.98;;;4.00;;
43098;SDS011;28715;51.988;6.020;2022-12-24T14:03:57;23.42;;;4.20;;
43098;SDS011;28715;51.988;6.020;2022-12-24T14:06:26;21.20;;;3.92;;
43098;SDS011;28715;51.988;6.020;2022-12-24T14:08:56;21.83;;;4.22;;
43098;SDS011;28715;51.988;6.020;2022-12-24T14:11:29;27.08;;;5.57;;
43098;SDS011;28715;51.988;6.020;2022-12-24T14:14:30;18.98;;;4.22;;
43098;SDS011;28715;51.988;6.020;2022-12-24T14:16:58;16.33;;;3.45;;
43098;SDS011;28715;51.988;6.020;2022-12-24T14:19:32;26.35;;;3.92;;
43098;SDS011;28715;51.988;6.020;2022-12-24T14:24:45;29.00;;;4.90;;
43098;SDS011;28715;51.988;6.020;2022-12-24T14:27:18;23.42;;;4.05;;
43098;SDS011;28715;51.988;6.020;2022-12-24T14:29:49;20.17;;;3.80;;
43098;SDS011;28715;51.988;6.020;2022-12-24T14:32:45;27.90;;;5.45;;
43098;SDS011;28715;51.988;6.020;2022-12-24T14:37:38;18.47;;;3.53;;
43098;SDS011;28715;51.988;6.020;2022-12-24T14:40:06;21.55;;;4.35;;
43098;SDS011;28715;51.988;6.020;2022-12-24T14:53:35;21.77;;;4.53;;
43098;SDS011;28715;51.988;6.020;2022-12-24T14:56:14;23.48;;;4.50;;
43098;SDS011;28715;51.988;6.020;2022-12-24T14:58:41;24.08;;;5.90;;
43098;SDS011;28715;51.988;6.020;2022-12-24T15:06:36;32.88;;;6.15;;
43098;SDS011;28715;51.988;6.020;2022-12-24T15:09:18;25.58;;;5.38;;
43098;SDS011;28715;51.988;6.020;2022-12-24T15:11:50;24.05;;;6.22;;
43098;SDS011;28715;51.988;6.020;2022-12-24T15:14:19;25.45;;;6.15;;
43098;SDS011;28715;51.988;6.020;2022-12-24T15:16:51;27.55;;;6.90;;
43098;SDS011;28715;51.988;6.020;2022-12-24T15:19:23;28.60;;;6.93;;
43098;SDS011;28715;51.988;6.020;2022-12-24T15:24:27;27.42;;;7.10;;
43098;SDS011;28715;51.988;6.020;2022-12-24T15:26:53;28.67;;;6.85;;
43098;SDS011;28715;51.988;6.020;2022-12-24T15:29:27;26.83;;;7.07;;
43098;SDS011;28715;51.988;6.020;2022-12-24T15:31:54;27.30;;;6.75;;
43098;SDS011;28715;51.988;6.020;2022-12-24T15:34:54;29.67;;;7.95;;
43098;SDS011;28715;51.988;6.020;2022-12-24T15:39:54;26.58;;;8.00;;
43098;SDS011;28715;51.988;6.020;2022-12-24T15:42:21;33.70;;;8.43;;
43098;SDS011;28715;51.988;6.020;2022-12-24T15:47:25;29.75;;;8.57;;
43098;SDS011;28715;51.988;6.020;2022-12-24T15:50:03;30.85;;;8.95;;
43098;SDS011;28715;51.988;6.020;2022-12-24T15:52:39;34.60;;;9.40;;
43098;SDS011;28715;51.988;6.020;2022-12-24T15:55:22;31.80;;;9.52;;
43098;SDS011;28715;51.988;6.020;2022-12-24T15:57:53;31.05;;;8.57;;
43098;SDS011;28715;51.988;6.020;2022-12-24T16:00:24;42.72;;;8.70;;
43098;SDS011;28715;51.988;6.020;2022-12-24T16:03:10;36.08;;;9.05;;
43098;SDS011;28715;51.988;6.020;2022-12-24T16:05:44;35.65;;;8.80;;
43098;SDS011;28715;51.988;6.020;2022-12-24T16:11:06;33.67;;;8.10;;
43098;SDS011;28715;51.988;6.020;2022-12-24T16:16:15;35.15;;;7.97;;
43098;SDS011;28715;51.988;6.020;2022-12-24T16:18:56;40.03;;;8.43;;
43098;SDS011;28715;51.988;6.020;2022-12-24T16:21:33;30.40;;;7.57;;
43098;SDS011;28715;51.988;6.020;2022-12-24T16:24:18;32.35;;;8.35;;
43098;SDS011;28715;51.988;6.020;2022-12-24T16:26:46;30.45;;;8.43;;
43098;SDS011;28715;51.988;6.020;2022-12-24T16:29:13;37.17;;;8.32;;
43098;SDS011;28715;51.988;6.020;2022-12-24T16:31:43;38.67;;;9.48;;
43098;SDS011;28715;51.988;6.020;2022-12-24T16:34:26;37.05;;;9.80;;
43098;SDS011;28715;51.988;6.020;2022-12-24T16:36:54;32.38;;;9.93;;
43098;SDS011;28715;51.988;6.020;2022-12-24T16:39:21;45.95;;;15.68;;
43098;SDS011;28715;51.988;6.020;2022-12-24T16:44:37;42.20;;;11.85;;
43098;SDS011;28715;51.988;6.020;2022-12-24T16:47:03;44.28;;;10.27;;
43098;SDS011;28715;51.988;6.020;2022-12-24T16:49:31;41.80;;;9.75;;
43098;SDS011;28715;51.988;6.020;2022-12-24T16:52:00;50.15;;;11.80;;
43098;SDS011;28715;51.988;6.020;2022-12-24T16:54:25;36.80;;;10.00;;
43098;SDS011;28715;51.988;6.020;2022-12-24T16:56:51;40.20;;;10.60;;
43098;SDS011;28715;51.988;6.020;2022-12-24T16:59:17;37.00;;;10.43;;
43098;SDS011;28715;51.988;6.020;2022-12-24T17:01:44;40.67;;;10.95;;
43098;SDS011;28715;51.988;6.020;2022-12-24T17:04:10;38.97;;;11.40;;
43098;SDS011;28715;51.988;6.020;2022-12-24T17:06:36;42.13;;;11.23;;
43098;SDS011;28715;51.988;6.020;2022-12-24T17:09:02;46.23;;;11.77;;
43098;SDS011;28715;51.988;6.020;2022-12-24T17:11:28;36.70;;;10.23;;